createdAt,value
2023-03-05T00:03:17.610Z,74.13
2023-03-05T00:08:19.189Z,71.18
2023-03-05T00:13:20.784Z,73.10
2023-03-05T00:18:22.533Z,71.69
2023-03-05T00:23:24.137Z,70.94
2023-03-05T00:28:25.685Z,71.31
2023-03-05T00:33:27.757Z,72.01
2023-03-05T00:38:29.454Z,71.45
2023-03-05T00:43:31.079Z,71.33
2023-03-05T00:48:32.653Z,70.91
2023-03-05T00:53:34.270Z,71.41
2023-03-05T00:58:35.840Z,70.08
2023-03-05T01:03:37.484Z,70.49
2023-03-05T01:08:39.704Z,70.72
2023-03-05T01:13:41.401Z,70.58
2023-03-05T01:18:43.041Z,70.24
2023-03-05T01:23:44.615Z,68.89
2023-03-05T01:28:46.196Z,70.60
2023-03-05T01:33:47.812Z,69.98
2023-03-05T01:38:49.403Z,68.64
2023-03-05T01:43:52.876Z,68.11
2023-03-05T01:48:56.074Z,67.28
2023-03-05T01:53:59.063Z,66.41
2023-03-05T01:59:03.578Z,65.81
2023-03-05T02:04:05.786Z,64.95
2023-03-05T02:09:07.563Z,63.98
2023-03-05T02:14:10.277Z,64.13
2023-03-05T02:19:12.709Z,65.18
2023-03-05T02:24:17.087Z,65.82
2023-03-05T02:29:20.131Z,65.83
2023-03-05T02:34:22.971Z,65.64
2023-03-05T02:39:25.170Z,66.01
2023-03-05T02:44:27.096Z,65.64
2023-03-05T02:49:28.846Z,66.12
2023-03-05T02:54:30.525Z,65.91
2023-03-05T02:59:32.243Z,66.76
2023-03-05T03:04:34.356Z,65.76
2023-03-05T03:09:36.131Z,65.39
2023-03-05T03:14:41.201Z,64.39
2023-03-05T03:19:43.333Z,63.76
2023-03-05T03:24:44.891Z,63.88
2023-03-05T03:29:46.432Z,64.36
2023-03-05T03:34:48.274Z,65.46
2023-03-05T03:39:49.875Z,63.67
2023-03-05T03:44:51.505Z,64.68
2023-03-05T03:49:56.232Z,64.01
2023-03-05T03:55:01.652Z,63.51
2023-03-05T04:00:06.937Z,63.40
2023-03-05T04:05:13.611Z,63.43
2023-03-05T04:10:15.231Z,62.28
2023-03-05T04:15:16.952Z,64.04
2023-03-05T04:20:18.637Z,63.54
2023-03-05T04:25:20.178Z,62.71
2023-03-05T04:30:24.651Z,62.58
2023-03-05T04:35:26.542Z,62.34
2023-03-05T04:40:28.278Z,62.69
2023-03-05T04:45:29.884Z,63.08
2023-03-05T04:50:31.436Z,63.65
2023-03-05T04:55:33.072Z,64.35
2023-03-05T05:00:34.680Z,65.57
2023-03-05T05:05:36.655Z,66.50
2023-03-05T05:10:41.438Z,67.89
2023-03-05T05:15:43.027Z,68.03
2023-03-05T05:20:44.655Z,68.89
2023-03-05T05:25:46.230Z,69.39
2023-03-05T05:30:47.830Z,69.21
2023-03-05T05:35:49.929Z,69.90
2023-03-05T05:40:51.620Z,69.33
2023-03-05T05:45:53.324Z,69.19
2023-03-05T05:50:55.048Z,69.08
2023-03-05T05:55:56.632Z,67.53
2023-03-05T06:00:58.224Z,68.06
2023-03-05T06:05:59.849Z,67.11
2023-03-05T06:11:01.493Z,69.11
2023-03-05T06:16:07.131Z,67.20
2023-03-05T06:21:12.862Z,66.66
2023-03-05T06:26:19.733Z,65.45
2023-03-05T06:31:25.522Z,65.32
2023-03-05T06:36:27.611Z,64.60
2023-03-05T06:41:30.808Z,65.28
2023-03-05T06:46:34.432Z,65.48
2023-03-05T06:51:39.452Z,64.71
2023-03-05T06:56:43.622Z,63.86
2023-03-05T07:01:45.665Z,64.82
2023-03-05T07:06:47.377Z,66.20
2023-03-05T07:11:49.002Z,66.56
2023-03-05T07:16:50.535Z,67.29
2023-03-05T07:21:52.203Z,68.13
2023-03-05T07:26:53.819Z,68.81
2023-03-05T07:31:56.009Z,69.56
2023-03-05T07:36:57.733Z,69.57
2023-03-05T07:41:59.306Z,70.13
2023-03-05T07:47:06.706Z,69.68
2023-03-05T07:52:08.913Z,69.36
2023-03-05T07:57:12.494Z,69.58
2023-03-05T08:02:14.805Z,68.49
2023-03-05T08:07:17.091Z,68.90
2023-03-05T08:12:18.821Z,70.04
2023-03-05T08:17:20.460Z,70.30
2023-03-05T08:22:22.073Z,70.61
2023-03-05T08:27:23.868Z,73.68
2023-03-05T08:32:25.545Z,72.35
2023-03-05T08:37:27.122Z,71.76
2023-03-05T08:42:28.800Z,71.32
2023-03-05T08:47:30.441Z,70.93
2023-03-05T08:52:32.047Z,71.01
2023-03-05T08:57:33.677Z,69.68
2023-03-05T09:02:35.397Z,71.18
2023-03-05T09:07:37.934Z,71.50
2023-03-05T09:12:39.654Z,73.33
2023-03-05T09:17:42.385Z,74.77
2023-03-05T09:22:43.969Z,75.07
2023-03-05T09:27:45.758Z,75.60
2023-03-05T09:32:47.407Z,75.40
2023-03-05T09:37:49.241Z,76.78
2023-03-05T09:42:53.483Z,75.70
2023-03-05T09:48:13.136Z,75.68
2023-03-05T09:53:14.680Z,74.17
2023-03-05T09:58:43.072Z,73.87
2023-03-05T10:04:16.153Z,73.24
2023-03-05T10:09:28.417Z,74.72
2023-03-05T10:14:34.469Z,72.55
2023-03-05T10:20:02.973Z,72.76
2023-03-05T10:25:20.888Z,74.04
2023-03-05T10:30:48.726Z,71.94
2023-03-05T10:36:21.186Z,71.95
2023-03-05T10:41:53.138Z,67.97
2023-03-05T10:46:57.358Z,66.00
2023-03-05T10:52:06.238Z,65.50
2023-03-05T10:57:20.143Z,65.41
2023-03-05T11:02:22.900Z,66.29
2023-03-05T11:07:24.490Z,66.05
2023-03-05T11:12:30.757Z,65.46
2023-03-05T11:17:47.705Z,66.80
2023-03-05T11:23:11.190Z,65.12
2023-03-05T11:28:30.744Z,64.35
2023-03-05T11:33:36.165Z,64.83
2023-03-05T11:38:56.517Z,64.82
2023-03-05T11:43:59.321Z,66.72
2023-03-05T11:49:01.673Z,65.58
2023-03-05T11:54:11.077Z,65.54
2023-03-05T11:59:27.228Z,66.02
2023-03-05T12:04:30.353Z,66.20
2023-03-05T12:09:41.079Z,66.74
2023-03-05T12:14:49.235Z,67.65
2023-03-05T12:20:25.576Z,67.95
2023-03-05T12:25:35.835Z,68.79
2023-03-05T12:30:37.356Z,69.00
2023-03-05T12:35:41.057Z,70.31
2023-03-05T12:40:43.011Z,69.40
2023-03-05T12:45:45.413Z,68.06
2023-03-05T12:50:48.795Z,67.86
2023-03-05T12:55:57.685Z,68.56
2023-03-05T13:01:04.274Z,67.79
2023-03-05T13:06:08.035Z,68.16
2023-03-05T13:11:17.078Z,68.00
2023-03-05T13:16:20.771Z,68.69
2023-03-05T13:21:27.865Z,68.65
2023-03-05T13:26:29.402Z,69.20
2023-03-05T13:31:31.104Z,68.78
2023-03-05T13:36:33.142Z,68.75
2023-03-05T13:41:34.999Z,68.32
2023-03-05T13:46:38.713Z,68.20
2023-03-05T13:51:41.968Z,69.74
2023-03-05T13:56:56.823Z,70.12
2023-03-05T14:02:00.521Z,69.63
2023-03-05T14:07:06.825Z,70.51
2023-03-05T14:12:30.405Z,70.84
2023-03-05T14:17:39.411Z,70.32
2023-03-05T14:22:43.453Z,75.00
2023-03-05T14:27:47.417Z,75.87
2023-03-05T14:32:49.799Z,75.62
2023-03-05T14:37:52.885Z,77.19
2023-03-05T14:42:58.470Z,76.22
2023-03-05T14:48:03.553Z,75.18
2023-03-05T14:53:18.636Z,74.05
2023-03-05T14:58:21.909Z,73.99
2023-03-05T15:03:24.494Z,75.60
2023-03-05T15:08:28.861Z,77.72
2023-03-05T15:13:31.708Z,78.62
2023-03-05T15:18:33.425Z,78.65
2023-03-05T15:23:38.120Z,79.31
2023-03-05T15:28:39.857Z,79.05
2023-03-05T15:33:41.847Z,80.31
2023-03-05T15:38:43.528Z,79.73
2023-03-05T15:43:45.653Z,79.83
2023-03-05T15:48:50.056Z,80.19
2023-03-05T15:53:51.919Z,80.00
2023-03-05T15:58:53.554Z,80.31
2023-03-05T16:03:55.334Z,79.37
2023-03-05T16:09:01.561Z,79.04
2023-03-05T16:14:04.501Z,79.64
2023-03-05T16:19:07.627Z,79.14
2023-03-05T16:24:09.333Z,79.58
2023-03-05T16:29:11.599Z,78.77
2023-03-05T16:34:14.205Z,78.74
2023-03-05T16:39:15.817Z,79.46
2023-03-05T16:44:17.438Z,78.96
2023-03-05T16:49:20.313Z,79.60
2023-03-05T16:54:22.099Z,78.47
2023-03-05T16:59:24.983Z,77.76
2023-03-05T17:04:26.608Z,78.54
2023-03-05T17:09:28.286Z,78.29
2023-03-05T17:14:29.932Z,78.49
2023-03-05T17:19:32.054Z,77.33
2023-03-05T17:24:33.667Z,76.26
2023-03-05T17:29:35.597Z,74.71
2023-03-05T17:34:37.272Z,74.75
2023-03-05T17:39:39.638Z,75.19
2023-03-05T17:44:42.629Z,73.92
2023-03-05T17:49:44.264Z,74.94
2023-03-05T17:54:45.937Z,73.74
2023-03-05T17:59:48.073Z,74.55
2023-03-05T18:04:52.045Z,73.43
2023-03-05T18:09:53.720Z,72.92
2023-03-05T18:14:55.288Z,73.43
2023-03-05T18:19:56.960Z,73.87
2023-03-05T18:24:58.616Z,74.05
2023-03-05T18:30:00.210Z,73.27
2023-03-05T18:35:01.789Z,73.42
2023-03-05T18:40:09.433Z,73.82
2023-03-05T18:45:14.269Z,74.48
2023-03-05T18:50:18.505Z,75.19
2023-03-05T18:55:23.307Z,76.66
2023-03-05T19:00:30.127Z,77.65
2023-03-05T19:05:32.196Z,79.02
2023-03-05T19:10:34.142Z,79.01
2023-03-05T19:15:39.598Z,78.53
2023-03-05T19:20:41.281Z,79.07
2023-03-05T19:25:42.854Z,80.52
2023-03-05T19:30:44.552Z,80.27
2023-03-05T19:35:46.331Z,79.95
2023-03-05T19:40:48.245Z,79.70
2023-03-05T19:45:49.907Z,80.40
2023-03-05T19:50:51.631Z,80.65
2023-03-05T19:55:53.259Z,80.74
2023-03-05T20:00:54.861Z,79.68
2023-03-05T20:05:56.468Z,79.89
2023-03-05T20:10:58.379Z,79.88
2023-03-05T20:16:00.299Z,80.64
2023-03-05T20:21:03.367Z,80.52
2023-03-05T20:26:06.660Z,79.94
2023-03-05T20:31:08.258Z,79.54
2023-03-05T20:36:10.017Z,79.72
2023-03-05T20:41:14.997Z,79.08
2023-03-05T20:46:16.632Z,79.23
2023-03-05T20:51:22.665Z,79.85
2023-03-05T20:56:28.097Z,80.01
2023-03-05T21:01:30.366Z,80.19
2023-03-05T21:06:33.248Z,79.76
2023-03-05T21:11:35.772Z,79.40
2023-03-05T21:16:37.555Z,79.35
2023-03-05T21:21:40.397Z,79.07
2023-03-05T21:26:41.957Z,79.70
2023-03-05T21:31:43.618Z,79.70
2023-03-05T21:36:45.293Z,79.66
2023-03-05T21:41:48.236Z,79.49
2023-03-05T21:46:51.119Z,78.97
2023-03-05T21:52:09.003Z,79.02
2023-03-05T21:57:11.725Z,77.97
2023-03-05T22:02:15.659Z,77.59
2023-03-05T22:07:18.318Z,76.79
2023-03-05T22:12:30.293Z,76.60
2023-03-05T22:17:31.854Z,76.44
2023-03-05T22:22:33.501Z,77.29
2023-03-05T22:27:35.142Z,76.85
2023-03-05T22:32:37.328Z,76.07
2023-03-05T22:37:41.200Z,75.32
2023-03-05T22:42:44.258Z,74.97
2023-03-05T22:47:48.093Z,74.93
2023-03-05T22:52:49.923Z,74.80
2023-03-05T22:57:51.471Z,75.27
2023-03-05T23:02:53.170Z,74.60
2023-03-05T23:07:54.808Z,74.73
2023-03-05T23:12:58.757Z,74.33
2023-03-05T23:18:01.047Z,73.99
2023-03-05T23:23:03.967Z,73.61
2023-03-05T23:28:05.657Z,73.75
2023-03-05T23:33:18.169Z,73.78
2023-03-05T23:38:20.230Z,74.40
2023-03-05T23:43:24.600Z,73.25
2023-03-05T23:48:27.042Z,74.34
2023-03-05T23:53:31.081Z,73.49
2023-03-05T23:58:32.719Z,73.41
